createdAt,value
2023-06-19T00:00:23.355Z,17.34
2023-06-19T00:02:51.848Z,17.32
2023-06-19T00:05:20.456Z,17.29
2023-06-19T00:07:48.821Z,17.30
2023-06-19T00:10:18.293Z,17.21
2023-06-19T00:12:48.378Z,17.17
2023-06-19T00:15:17.031Z,17.08
2023-06-19T00:17:45.359Z,17.04
2023-06-19T00:20:14.780Z,17.03
2023-06-19T00:22:43.117Z,16.97
2023-06-19T00:25:11.716Z,16.82
2023-06-19T00:27:41.380Z,16.81
2023-06-19T00:30:11.000Z,16.68
2023-06-19T00:32:47.656Z,16.64
2023-06-19T00:35:17.251Z,16.53
2023-06-19T00:37:46.859Z,16.48
2023-06-19T00:40:29.431Z,16.44
2023-06-19T00:42:59.677Z,16.46
2023-06-19T00:45:29.058Z,16.37
2023-06-19T00:47:59.042Z,16.34
2023-06-19T00:50:30.284Z,16.30
2023-06-19T00:52:58.763Z,16.32
2023-06-19T00:55:30.670Z,16.34
2023-06-19T00:58:01.621Z,16.30
2023-06-19T01:00:29.881Z,16.29
2023-06-19T01:02:58.215Z,16.22
2023-06-19T01:05:26.400Z,16.20
2023-06-19T01:08:03.617Z,16.14
2023-06-19T01:10:36.103Z,16.10
2023-06-19T01:13:17.556Z,16.07
2023-06-19T01:15:46.932Z,16.06
2023-06-19T01:18:15.954Z,16.00
2023-06-19T01:20:44.416Z,15.98
2023-06-19T01:23:14.237Z,15.92
2023-06-19T01:25:42.481Z,15.90
2023-06-19T01:28:13.287Z,15.88
2023-06-19T01:30:45.107Z,15.90
2023-06-19T01:33:20.603Z,15.94
2023-06-19T01:35:50.993Z,15.93
2023-06-19T01:38:22.848Z,15.91
2023-06-19T01:40:51.898Z,15.93
2023-06-19T01:43:20.907Z,15.90
2023-06-19T01:45:49.456Z,15.90
2023-06-19T01:48:17.828Z,15.94
2023-06-19T01:50:47.621Z,15.96
2023-06-19T01:53:16.176Z,16.02
2023-06-19T01:55:45.985Z,16.03
2023-06-19T01:58:14.328Z,16.06
2023-06-19T02:00:42.335Z,16.14
2023-06-19T02:03:10.692Z,16.23
2023-06-19T02:05:43.213Z,16.36
2023-06-19T02:08:11.519Z,16.46
2023-06-19T02:10:39.925Z,16.54
2023-06-19T02:13:09.309Z,16.64
2023-06-19T02:15:37.547Z,16.71
2023-06-19T02:18:06.792Z,16.77
2023-06-19T02:20:37.392Z,16.84
2023-06-19T02:23:05.660Z,16.89
2023-06-19T02:25:34.795Z,16.93
2023-06-19T02:28:04.633Z,16.95
2023-06-19T02:30:37.071Z,17.02
2023-06-19T02:33:06.194Z,17.07
2023-06-19T02:35:34.505Z,17.07
2023-06-19T02:38:02.462Z,17.07
2023-06-19T02:40:33.243Z,17.04
2023-06-19T02:43:01.647Z,17.08
2023-06-19T02:45:30.007Z,17.08
2023-06-19T02:47:59.758Z,17.07
2023-06-19T02:50:27.803Z,17.08
2023-06-19T02:52:56.024Z,17.10
2023-06-19T02:55:24.127Z,17.08
2023-06-19T02:57:52.359Z,17.13
2023-06-19T03:00:21.069Z,17.08
2023-06-19T03:02:50.015Z,17.07
2023-06-19T03:05:19.677Z,17.08
2023-06-19T03:07:47.791Z,17.14
2023-06-19T03:10:15.926Z,17.15
2023-06-19T03:12:44.054Z,17.13
2023-06-19T03:15:12.801Z,17.14
2023-06-19T03:17:40.939Z,17.11
2023-06-19T03:20:13.182Z,17.14
2023-06-19T03:22:44.442Z,17.16
2023-06-19T03:25:12.529Z,17.11
2023-06-19T03:27:40.741Z,17.08
2023-06-19T03:30:09.390Z,17.11
2023-06-19T03:32:37.564Z,17.11
2023-06-19T03:35:06.773Z,17.12
2023-06-19T03:37:34.784Z,17.15
2023-06-19T03:40:05.797Z,17.14
2023-06-19T03:42:33.775Z,17.11
2023-06-19T03:45:01.784Z,17.14
2023-06-19T03:47:29.835Z,17.14
2023-06-19T03:50:07.799Z,17.13
2023-06-19T03:52:47.717Z,17.12
2023-06-19T03:55:16.837Z,17.08
2023-06-19T03:57:44.843Z,17.09
2023-06-19T04:00:14.238Z,17.16
2023-06-19T04:02:42.386Z,17.13
2023-06-19T04:05:10.657Z,17.13
2023-06-19T04:07:38.614Z,17.08
2023-06-19T04:10:07.808Z,17.09
2023-06-19T04:12:37.165Z,17.12
2023-06-19T04:15:05.676Z,17.08
2023-06-19T04:17:33.788Z,17.11
2023-06-19T04:20:01.955Z,17.13
2023-06-19T04:22:29.928Z,17.09
2023-06-19T04:24:57.933Z,17.14
2023-06-19T04:27:25.934Z,17.15
2023-06-19T04:29:55.577Z,17.14
2023-06-19T04:32:23.712Z,17.15
2023-06-19T04:34:51.698Z,17.19
2023-06-19T04:37:20.403Z,17.24
2023-06-19T04:39:48.565Z,17.22
2023-06-19T04:42:20.658Z,17.24
2023-06-19T04:44:49.125Z,17.22
2023-06-19T04:47:20.002Z,17.21
2023-06-19T04:49:48.019Z,17.23
2023-06-19T04:52:16.341Z,17.26
2023-06-19T04:54:44.189Z,17.23
2023-06-19T04:57:12.178Z,17.21
2023-06-19T04:59:40.119Z,17.22
2023-06-19T05:02:08.623Z,17.21
2023-06-19T05:04:37.994Z,17.27
2023-06-19T05:07:07.337Z,17.30
2023-06-19T05:09:35.313Z,17.32
2023-06-19T05:12:03.345Z,17.27
2023-06-19T05:14:31.320Z,17.29
2023-06-19T05:16:59.412Z,17.28
2023-06-19T05:19:27.445Z,17.30
2023-06-19T05:21:57.369Z,17.30
2023-06-19T05:24:25.433Z,17.32
2023-06-19T05:26:53.600Z,17.34
2023-06-19T05:29:21.583Z,17.28
2023-06-19T05:31:49.567Z,17.24
2023-06-19T05:34:17.586Z,17.18
2023-06-19T05:36:48.167Z,17.15
2023-06-19T05:39:20.310Z,17.12
2023-06-19T05:41:51.300Z,17.08
2023-06-19T05:44:20.247Z,17.06
2023-06-19T05:46:48.404Z,17.04
2023-06-19T05:49:16.476Z,17.09
2023-06-19T05:51:44.831Z,17.11
2023-06-19T05:54:12.575Z,17.07
2023-06-19T05:56:42.363Z,17.09
2023-06-19T05:59:10.297Z,17.10
2023-06-19T06:01:38.463Z,17.06
2023-06-19T06:04:06.615Z,17.04
2023-06-19T06:06:35.704Z,16.96
2023-06-19T06:09:03.772Z,16.94
2023-06-19T06:11:31.837Z,16.94
2023-06-19T06:14:01.182Z,16.92
2023-06-19T06:16:29.464Z,16.89
2023-06-19T06:18:57.270Z,16.89
2023-06-19T06:21:25.501Z,16.94
2023-06-19T06:23:53.477Z,16.96
2023-06-19T06:26:21.458Z,16.96
2023-06-19T06:28:52.126Z,17.01
2023-06-19T06:31:21.609Z,17.08
2023-06-19T06:33:51.919Z,17.07
2023-06-19T06:36:33.688Z,17.10
2023-06-19T06:39:04.751Z,17.16
2023-06-19T06:41:32.781Z,17.20
2023-06-19T06:44:03.701Z,17.18
2023-06-19T06:46:35.437Z,17.18
2023-06-19T06:49:03.418Z,17.16
2023-06-19T06:51:31.429Z,17.11
2023-06-19T06:53:59.859Z,17.16
2023-06-19T06:56:27.821Z,17.15
2023-06-19T06:58:55.802Z,17.16
2023-06-19T07:01:23.952Z,17.14
2023-06-19T07:03:54.192Z,17.15
2023-06-19T07:06:23.616Z,17.16
2023-06-19T07:08:51.665Z,17.16
2023-06-19T07:11:19.692Z,17.22
2023-06-19T07:13:47.925Z,17.24
2023-06-19T07:16:16.079Z,17.20
2023-06-19T07:18:44.140Z,17.20
2023-06-19T07:21:14.879Z,17.24
2023-06-19T07:23:43.581Z,17.25
2023-06-19T07:26:12.163Z,17.28
2023-06-19T07:28:40.234Z,17.28
2023-06-19T07:31:08.248Z,17.30
2023-06-19T07:33:36.864Z,17.33
2023-06-19T07:36:05.163Z,17.37
2023-06-19T07:38:34.521Z,17.36
2023-06-19T07:41:02.537Z,17.35
2023-06-19T07:43:30.914Z,17.32
2023-06-19T07:45:58.927Z,17.38
2023-06-19T07:48:27.305Z,17.42
2023-06-19T07:50:56.143Z,17.40
2023-06-19T07:53:24.262Z,17.38
2023-06-19T07:55:53.671Z,17.38
2023-06-19T07:58:21.784Z,17.39
2023-06-19T08:00:50.098Z,17.37
2023-06-19T08:03:18.002Z,17.39
2023-06-19T08:05:46.631Z,17.34
2023-06-19T08:08:16.200Z,17.34
2023-06-19T08:10:44.829Z,17.34
2023-06-19T08:13:15.138Z,17.35
2023-06-19T08:15:43.878Z,17.31
2023-06-19T08:18:14.016Z,17.29
2023-06-19T08:20:42.236Z,17.23
2023-06-19T08:23:10.255Z,17.17
2023-06-19T08:25:38.294Z,17.14
2023-06-19T08:28:07.651Z,17.12
2023-06-19T08:30:37.125Z,17.14
2023-06-19T08:33:05.310Z,17.15
2023-06-19T08:35:33.462Z,17.19
2023-06-19T08:38:01.455Z,17.19
2023-06-19T08:40:29.478Z,17.20
2023-06-19T08:42:58.007Z,17.20
2023-06-19T08:45:28.983Z,17.22
2023-06-19T08:48:02.017Z,17.24
2023-06-19T08:50:30.046Z,17.20
2023-06-19T08:52:58.628Z,17.23
2023-06-19T08:55:30.341Z,17.25
2023-06-19T08:57:58.391Z,17.26
2023-06-19T09:00:27.948Z,17.33
2023-06-19T09:03:12.298Z,17.39
2023-06-19T09:05:47.685Z,17.47
2023-06-19T09:08:16.949Z,17.56
2023-06-19T09:10:45.281Z,17.62
2023-06-19T09:13:13.028Z,17.62
2023-06-19T09:15:41.065Z,17.64
2023-06-19T09:18:12.556Z,17.68
2023-06-19T09:20:45.615Z,17.72
2023-06-19T09:23:15.532Z,17.66
2023-06-19T09:25:48.378Z,17.63
2023-06-19T09:28:22.387Z,17.62
2023-06-19T09:30:58.085Z,17.59
2023-06-19T09:33:29.611Z,17.54
2023-06-19T09:35:59.286Z,17.54
2023-06-19T09:38:32.304Z,17.52
2023-06-19T09:41:03.573Z,17.51
2023-06-19T09:43:38.109Z,17.49
2023-06-19T09:46:07.520Z,17.51
2023-06-19T09:48:41.577Z,17.58
2023-06-19T09:51:14.548Z,17.61
2023-06-19T09:53:42.836Z,17.70
2023-06-19T09:56:11.217Z,17.72
2023-06-19T09:58:40.333Z,17.65
2023-06-19T10:01:08.781Z,17.66
2023-06-19T10:03:39.244Z,17.66
2023-06-19T10:06:07.566Z,17.65
2023-06-19T10:08:41.660Z,17.68
2023-06-19T10:11:09.802Z,17.63
2023-06-19T10:13:40.171Z,17.62
2023-06-19T10:16:08.451Z,17.65
2023-06-19T10:18:47.500Z,17.62
2023-06-19T10:21:18.967Z,17.64
2023-06-19T10:23:55.666Z,17.60
2023-06-19T10:26:34.975Z,17.50
2023-06-19T10:29:03.831Z,17.48
2023-06-19T10:31:31.867Z,17.46
2023-06-19T10:34:01.365Z,17.46
2023-06-19T10:36:29.349Z,17.45
2023-06-19T10:38:57.436Z,17.46
2023-06-19T10:41:27.253Z,17.47
2023-06-19T10:43:56.692Z,17.44
2023-06-19T10:46:26.186Z,17.43
2023-06-19T10:48:57.767Z,17.40
2023-06-19T10:51:27.289Z,17.49
2023-06-19T10:53:56.485Z,17.49
2023-06-19T10:56:25.565Z,17.53
2023-06-19T10:58:59.600Z,17.61
2023-06-19T11:01:35.349Z,17.75
2023-06-19T11:04:05.554Z,17.87
2023-06-19T11:06:38.075Z,18.03
2023-06-19T11:09:06.457Z,18.21
2023-06-19T11:11:41.818Z,18.44
2023-06-19T11:14:11.990Z,18.65
2023-06-19T11:16:41.571Z,18.84
2023-06-19T11:19:10.428Z,19.16
2023-06-19T11:21:40.362Z,19.38
2023-06-19T11:24:16.433Z,19.66
2023-06-19T11:26:50.612Z,19.83
2023-06-19T11:29:20.566Z,19.98
2023-06-19T11:31:49.218Z,19.96
2023-06-19T11:34:17.883Z,19.94
2023-06-19T11:36:47.301Z,19.92
2023-06-19T11:39:18.285Z,20.03
2023-06-19T11:41:49.863Z,19.94
2023-06-19T11:44:18.293Z,19.92
2023-06-19T11:46:46.318Z,20.11
2023-06-19T11:49:15.410Z,20.37
2023-06-19T11:51:43.474Z,20.61
2023-06-19T11:54:16.964Z,20.84
2023-06-19T11:56:45.068Z,21.02
2023-06-19T11:59:13.139Z,21.16
2023-06-19T12:01:41.132Z,21.24
2023-06-19T12:04:09.431Z,21.35
2023-06-19T12:06:38.494Z,21.48
2023-06-19T12:09:07.183Z,21.67
2023-06-19T12:11:37.059Z,21.80
2023-06-19T12:14:05.028Z,21.96
2023-06-19T12:16:33.174Z,22.07
2023-06-19T12:19:01.200Z,22.26
2023-06-19T12:21:35.543Z,22.33
2023-06-19T12:24:07.951Z,22.42
2023-06-19T12:26:38.734Z,22.42
2023-06-19T12:29:07.918Z,22.37
2023-06-19T12:31:37.252Z,22.37
2023-06-19T12:34:13.929Z,22.37
2023-06-19T12:36:49.025Z,22.47
2023-06-19T12:39:18.029Z,22.56
2023-06-19T12:41:49.805Z,22.41
2023-06-19T12:44:17.975Z,22.25
2023-06-19T12:46:46.001Z,22.05
2023-06-19T12:49:14.132Z,21.87
2023-06-19T12:51:42.113Z,21.78
2023-06-19T12:54:11.243Z,21.70
2023-06-19T12:56:39.231Z,21.68
2023-06-19T12:59:08.563Z,21.65
2023-06-19T13:01:39.086Z,21.61
2023-06-19T13:04:07.308Z,21.61
2023-06-19T13:06:35.605Z,21.60
2023-06-19T13:09:06.376Z,21.68
2023-06-19T13:11:35.504Z,21.75
2023-06-19T13:14:03.673Z,21.88
2023-06-19T13:16:46.100Z,21.84
2023-06-19T13:19:15.454Z,21.97
2023-06-19T13:21:43.922Z,22.03
2023-06-19T13:24:12.765Z,22.07
2023-06-19T13:26:40.903Z,22.25
2023-06-19T13:29:08.910Z,22.48
2023-06-19T13:31:38.211Z,22.61
2023-06-19T13:34:06.362Z,22.68
2023-06-19T13:36:34.371Z,22.51
2023-06-19T13:39:02.558Z,22.26
2023-06-19T13:41:32.417Z,22.16
2023-06-19T13:44:01.076Z,22.15
2023-06-19T13:46:29.532Z,22.07
2023-06-19T13:48:59.001Z,22.14
2023-06-19T13:51:27.479Z,21.96
2023-06-19T13:53:55.683Z,21.93
2023-06-19T13:56:28.487Z,21.95
2023-06-19T13:58:56.502Z,21.97
2023-06-19T14:01:26.621Z,21.91
2023-06-19T14:03:54.721Z,21.93
2023-06-19T14:06:24.286Z,22.00
2023-06-19T14:08:52.320Z,21.98
2023-06-19T14:11:21.021Z,21.85
2023-06-19T14:13:49.053Z,21.79
2023-06-19T14:16:17.294Z,21.92
2023-06-19T14:18:45.303Z,21.76
2023-06-19T14:21:13.229Z,21.75
2023-06-19T14:23:44.613Z,21.67
2023-06-19T14:26:14.629Z,21.54
2023-06-19T14:28:42.732Z,21.47
2023-06-19T14:31:10.689Z,21.51
2023-06-19T14:33:39.186Z,21.63
2023-06-19T14:36:07.560Z,21.92
2023-06-19T14:38:35.700Z,22.38
2023-06-19T14:41:05.869Z,22.42
2023-06-19T14:43:34.839Z,22.43
2023-06-19T14:46:04.823Z,22.33
2023-06-19T14:48:32.902Z,22.17
2023-06-19T14:51:00.877Z,21.93
2023-06-19T14:53:28.915Z,21.79
2023-06-19T14:55:56.893Z,21.64
2023-06-19T14:58:29.754Z,21.48
2023-06-19T15:00:59.123Z,21.50
2023-06-19T15:03:27.289Z,21.60
2023-06-19T15:05:55.434Z,21.74
2023-06-19T15:08:25.192Z,21.92
2023-06-19T15:10:53.462Z,22.03
2023-06-19T15:13:21.452Z,22.31
2023-06-19T15:15:52.018Z,22.41
2023-06-19T15:18:20.275Z,22.51
2023-06-19T15:20:48.438Z,22.75
2023-06-19T15:23:16.440Z,22.76
2023-06-19T15:25:44.442Z,22.83
2023-06-19T15:28:12.992Z,22.81
2023-06-19T15:30:41.005Z,22.74
2023-06-19T15:33:10.663Z,22.62
2023-06-19T15:35:38.704Z,22.46
2023-06-19T15:38:08.636Z,22.30
2023-06-19T15:40:36.603Z,22.23
2023-06-19T15:43:04.598Z,22.02
2023-06-19T15:45:32.540Z,21.92
2023-06-19T15:48:00.581Z,21.84
2023-06-19T15:50:29.793Z,21.79
2023-06-19T15:52:57.737Z,21.85
2023-06-19T15:55:25.785Z,21.69
2023-06-19T15:57:53.745Z,21.75
2023-06-19T16:00:23.982Z,21.80
2023-06-19T16:02:52.283Z,21.90
2023-06-19T16:05:20.138Z,21.94
2023-06-19T16:07:55.548Z,22.05
2023-06-19T16:10:23.840Z,22.03
2023-06-19T16:12:52.069Z,21.96
2023-06-19T16:15:25.282Z,21.89
2023-06-19T16:17:57.472Z,21.80
2023-06-19T16:20:28.480Z,21.74
2023-06-19T16:22:57.960Z,21.74
2023-06-19T16:25:26.041Z,21.73
2023-06-19T16:27:54.065Z,21.74
2023-06-19T16:30:22.286Z,21.71
2023-06-19T16:32:50.467Z,21.65
2023-06-19T16:35:23.557Z,21.67
2023-06-19T16:37:54.600Z,21.65
2023-06-19T16:40:26.190Z,21.53
2023-06-19T16:42:55.332Z,21.52
2023-06-19T16:45:27.609Z,21.49
2023-06-19T16:47:56.064Z,21.57
2023-06-19T16:50:24.764Z,21.55
2023-06-19T16:52:53.039Z,21.44
2023-06-19T16:55:23.703Z,21.38
2023-06-19T16:57:53.143Z,21.27
2023-06-19T17:00:21.552Z,21.28
2023-06-19T17:02:56.983Z,21.21
2023-06-19T17:05:26.108Z,21.13
2023-06-19T17:07:54.153Z,21.13
2023-06-19T17:10:24.127Z,21.05
2023-06-19T17:12:55.775Z,20.96
2023-06-19T17:15:23.768Z,20.90
2023-06-19T17:17:51.789Z,20.89
2023-06-19T17:20:19.897Z,20.90
2023-06-19T17:22:48.133Z,20.89
2023-06-19T17:25:16.183Z,20.82
2023-06-19T17:27:44.448Z,20.78
2023-06-19T17:30:15.922Z,20.73
2023-06-19T17:35:17.192Z,20.55
2023-06-19T17:37:45.536Z,20.51
2023-06-19T17:40:22.225Z,20.46
2023-06-19T17:42:51.790Z,20.45
2023-06-19T17:45:22.608Z,20.45
2023-06-19T17:47:51.298Z,20.40
2023-06-19T17:50:19.371Z,20.40
2023-06-19T17:52:50.517Z,20.34
2023-06-19T17:55:18.544Z,20.29
2023-06-19T17:57:46.602Z,20.29
2023-06-19T18:00:15.532Z,20.21
2023-06-19T18:02:44.948Z,20.21
2023-06-19T18:05:12.934Z,20.20
2023-06-19T18:07:40.944Z,20.10
2023-06-19T18:10:12.319Z,20.15
2023-06-19T18:12:43.854Z,20.11
2023-06-19T18:15:12.822Z,20.12
2023-06-19T18:17:40.811Z,20.06
2023-06-19T18:20:19.907Z,20.01
2023-06-19T18:22:47.908Z,19.98
2023-06-19T18:25:16.342Z,20.02
2023-06-19T18:27:44.603Z,19.99
2023-06-19T18:30:12.798Z,20.00
2023-06-19T18:32:40.851Z,19.93
2023-06-19T18:35:10.860Z,19.93
2023-06-19T18:37:38.847Z,19.91
2023-06-19T18:40:08.329Z,19.90
2023-06-19T18:42:36.483Z,19.87
2023-06-19T18:45:04.817Z,19.86
2023-06-19T18:47:32.816Z,19.91
2023-06-19T18:50:01.059Z,19.87
2023-06-19T18:52:30.426Z,19.88
2023-06-19T18:54:58.365Z,19.85
2023-06-19T18:57:29.335Z,19.85
2023-06-19T18:59:58.113Z,19.84
2023-06-19T19:02:26.779Z,19.83
2023-06-19T19:04:55.857Z,19.81
2023-06-19T19:07:24.758Z,19.81
2023-06-19T19:09:55.178Z,19.76
2023-06-19T19:12:23.215Z,19.74
2023-06-19T19:14:51.225Z,19.78
2023-06-19T19:17:19.256Z,19.74
2023-06-19T19:19:47.273Z,19.70
2023-06-19T19:22:15.317Z,19.65
2023-06-19T19:24:43.372Z,19.67
2023-06-19T19:27:12.641Z,19.65
2023-06-19T19:29:40.924Z,19.61
2023-06-19T19:32:08.952Z,19.52
2023-06-19T19:34:36.950Z,19.53
2023-06-19T19:37:04.982Z,19.50
2023-06-19T19:39:35.568Z,19.44
2023-06-19T19:42:06.313Z,19.41
2023-06-19T19:44:35.652Z,19.33
2023-06-19T19:47:03.722Z,19.33
2023-06-19T19:49:31.682Z,19.31
2023-06-19T19:51:59.672Z,19.32
2023-06-19T19:54:27.736Z,19.32
2023-06-19T19:56:58.299Z,19.26
2023-06-19T19:59:29.387Z,19.31
2023-06-19T20:01:58.918Z,19.26
2023-06-19T20:04:27.006Z,19.26
2023-06-19T20:06:55.161Z,19.22
2023-06-19T20:09:23.216Z,19.22
2023-06-19T20:11:51.566Z,19.22
2023-06-19T20:14:19.841Z,19.21
2023-06-19T20:16:47.590Z,19.18
2023-06-19T20:19:17.028Z,19.16
2023-06-19T20:21:45.001Z,19.14
2023-06-19T20:24:12.991Z,19.10
2023-06-19T20:26:41.061Z,19.11
2023-06-19T20:29:11.641Z,19.10
2023-06-19T20:31:39.897Z,19.07
2023-06-19T20:34:07.907Z,19.00
2023-06-19T20:36:37.266Z,19.01
2023-06-19T20:39:07.005Z,18.99
2023-06-19T20:41:38.777Z,18.94
2023-06-19T20:44:06.946Z,18.88
2023-06-19T20:46:35.174Z,18.85
2023-06-19T20:49:02.910Z,18.82
2023-06-19T20:51:30.954Z,18.81
2023-06-19T20:54:04.856Z,18.85
2023-06-19T20:56:32.832Z,18.88
2023-06-19T20:59:00.806Z,18.89
2023-06-19T21:01:29.281Z,18.86
2023-06-19T21:03:57.246Z,18.83
2023-06-19T21:06:26.503Z,18.80
2023-06-19T21:08:55.346Z,18.83
2023-06-19T21:11:24.791Z,18.80
2023-06-19T21:13:52.763Z,18.79
2023-06-19T21:16:20.754Z,18.70
2023-06-19T21:18:48.821Z,18.44
2023-06-19T21:21:16.789Z,18.35
2023-06-19T21:23:44.800Z,18.20
2023-06-19T21:26:12.805Z,18.04
2023-06-19T21:28:42.198Z,17.92
2023-06-19T21:31:11.377Z,17.84
2023-06-19T21:33:39.326Z,17.79
2023-06-19T21:36:08.021Z,17.60
2023-06-19T21:38:36.145Z,17.59
2023-06-19T21:41:04.436Z,17.50
2023-06-19T21:43:34.865Z,17.41
2023-06-19T21:46:04.519Z,17.31
2023-06-19T21:48:32.532Z,17.25
2023-06-19T21:51:01.141Z,17.28
2023-06-19T21:53:29.421Z,17.30
2023-06-19T21:55:59.560Z,17.27
2023-06-19T21:58:27.648Z,17.26
2023-06-19T22:01:00.597Z,17.26
2023-06-19T22:03:30.265Z,17.24
2023-06-19T22:05:58.396Z,17.23
2023-06-19T22:08:41.503Z,17.23
2023-06-19T22:11:10.473Z,17.27
2023-06-19T22:13:42.543Z,17.31
2023-06-19T22:16:10.709Z,17.26
2023-06-19T22:18:40.123Z,17.25
2023-06-19T22:21:08.103Z,17.19
2023-06-19T22:23:39.384Z,17.19
2023-06-19T22:26:07.440Z,17.17
2023-06-19T22:28:35.584Z,17.18
2023-06-19T22:31:03.630Z,17.17
2023-06-19T22:33:31.709Z,17.17
2023-06-19T22:36:01.051Z,17.13
2023-06-19T22:38:29.026Z,17.13
2023-06-19T22:40:57.734Z,17.14
2023-06-19T22:43:25.712Z,17.12
2023-06-19T22:45:55.602Z,17.14
2023-06-19T22:48:27.733Z,17.16
2023-06-19T22:50:56.006Z,17.12
2023-06-19T22:53:26.883Z,17.09
2023-06-19T22:55:55.148Z,17.12
2023-06-19T22:58:23.628Z,17.04
2023-06-19T23:00:51.615Z,17.03
2023-06-19T23:03:22.878Z,16.97
2023-06-19T23:05:50.976Z,16.93
2023-06-19T23:08:21.946Z,16.92
2023-06-19T23:10:51.407Z,16.88
2023-06-19T23:13:19.508Z,16.81
2023-06-19T23:15:47.524Z,16.83
2023-06-19T23:18:15.507Z,16.78
2023-06-19T23:20:43.480Z,16.77
2023-06-19T23:23:11.754Z,16.80
2023-06-19T23:25:39.762Z,16.72
2023-06-19T23:28:09.120Z,16.70
2023-06-19T23:30:37.085Z,16.65
2023-06-19T23:33:05.707Z,16.66
2023-06-19T23:35:33.781Z,16.62
2023-06-19T23:38:01.972Z,16.58
2023-06-19T23:40:31.007Z,16.53
2023-06-19T23:42:59.320Z,16.52
2023-06-19T23:45:28.479Z,16.59
2023-06-19T23:47:56.847Z,16.61
2023-06-19T23:50:25.555Z,16.60
2023-06-19T23:52:56.785Z,16.53
2023-06-19T23:55:24.950Z,16.57
2023-06-19T23:57:54.988Z,16.61
